Time;durP1;ratioP1;P1;durP2;ratioP2;P2;SDS_P1;SDS_P2;PMS_P1;PMS_P2;Temp;Humidity;BMP_temperature;BMP_pressure;BME280_temperature;BME280_humidity;BME280_pressure;Samples;Min_cycle;Max_cycle;Signal;HPM_P1;HPM_P2
2023/07/20 00:00:53;;;;;;;10.47;7.17;;;15.30;99.90;;;;;;5014751;28;20407;-76
2023/07/20 00:03:23;;;;;;;8.45;6.80;;;15.60;99.90;;;;;;4997447;28;20431;-76
2023/07/20 00:05:49;;;;;;;8.45;6.50;;;15.60;99.90;;;;;;5014850;28;20411;-76
2023/07/20 00:08:16;;;;;;;9.23;6.97;;;15.50;99.90;;;;;;5014328;28;20454;-77
2023/07/20 00:10:42;;;;;;;8.07;6.72;;;15.50;99.90;;;;;;5012939;28;20419;-77
2023/07/20 00:13:08;;;;;;;8.25;6.63;;;15.60;99.90;;;;;;5012674;28;20431;-77
2023/07/20 00:15:34;;;;;;;8.20;6.45;;;15.60;99.90;;;;;;4998325;28;20498;-76
2023/07/20 00:17:59;;;;;;;9.35;7.13;;;15.30;99.90;;;;;;5013619;28;20494;-76
2023/07/20 00:20:25;;;;;;;7.85;6.63;;;15.50;99.90;;;;;;4998044;28;20407;-76
2023/07/20 00:22:51;;;;;;;9.02;7.05;;;15.50;99.90;;;;;;4997996;28;20493;-77
2023/07/20 00:25:18;;;;;;;8.57;7.00;;;15.40;99.90;;;;;;5010054;28;20418;-77
2023/07/20 00:27:44;;;;;;;7.27;6.30;;;15.40;99.90;;;;;;4996034;28;20423;-76
2023/07/20 00:30:10;;;;;;;7.57;6.47;;;15.40;99.90;;;;;;5013288;28;20419;-76
2023/07/20 00:32:36;;;;;;;7.45;6.60;;;15.40;99.90;;;;;;5014300;28;20460;-76
2023/07/20 00:35:01;;;;;;;7.50;6.43;;;15.20;99.90;;;;;;5013435;28;20423;-77
2023/07/20 00:37:27;;;;;;;8.50;6.80;;;15.30;99.90;;;;;;4981949;28;20399;-76
2023/07/20 00:39:53;;;;;;;8.30;7.40;;;15.30;99.90;;;;;;4995666;28;20454;-76
2023/07/20 00:42:19;;;;;;;9.75;7.15;;;15.00;99.90;;;;;;5013999;28;20445;-76
2023/07/20 00:44:45;;;;;;;8.97;7.47;;;15.10;99.90;;;;;;4996457;28;20419;-76
2023/07/20 00:47:10;;;;;;;8.47;6.70;;;14.90;99.90;;;;;;5012877;28;20426;-76
2023/07/20 00:49:37;;;;;;;9.35;7.05;;;15.00;99.90;;;;;;4997349;28;20419;-76
2023/07/20 00:52:06;;;;;;;9.30;7.03;;;15.00;99.90;;;;;;5009611;28;20905;-77
2023/07/20 00:54:32;;;;;;;8.38;7.28;;;;;;;;;;5007821;28;20969;-76
2023/07/20 00:57:00;;;;;;;7.75;6.30;;;14.70;99.90;;;;;;4997657;28;20406;-76
2023/07/20 00:59:26;;;;;;;8.23;6.03;;;14.70;99.90;;;;;;4997710;28;20485;-76
2023/07/20 01:01:52;;;;;;;8.53;6.53;;;14.70;99.90;;;;;;5014093;28;20478;-76
2023/07/20 01:04:18;;;;;;;8.63;6.60;;;14.40;99.90;;;;;;5011230;28;20506;-76
2023/07/20 01:06:55;;;;;;;8.48;6.90;;;14.30;99.90;;;;;;5012168;28;20919;-76
2023/07/20 01:09:54;;;;;;;9.82;7.05;;;14.30;99.90;;;;;;4996643;28;20942;-76
2023/07/20 01:12:30;;;;;;;8.07;6.65;;;14.30;99.90;;;;;;4997120;28;20811;-77
2023/07/20 01:14:56;;;;;;;9.20;6.72;;;14.20;99.90;;;;;;5008768;28;20422;-76
2023/07/20 01:17:23;;;;;;;8.25;6.60;;;14.20;99.90;;;;;;5011960;28;20508;-76
2023/07/20 01:19:49;;;;;;;9.25;7.40;;;14.30;99.90;;;;;;5009969;28;20513;-76
2023/07/20 01:22:15;;;;;;;11.93;7.30;;;14.20;99.90;;;;;;5012817;28;20502;-77
2023/07/20 01:25:20;;;;;;;8.60;6.80;;;14.30;99.90;;;;;;5013913;28;20410;-77
2023/07/20 01:28:04;;;;;;;9.70;7.45;;;14.20;99.90;;;;;;4994010;28;20436;-77
2023/07/20 01:30:55;;;;;;;8.70;6.82;;;14.10;99.90;;;;;;4993858;28;20479;-76
2023/07/20 01:33:23;;;;;;;10.07;7.05;;;14.20;99.90;;;;;;5011288;28;20418;-76
2023/07/20 01:35:55;;;;;;;8.27;6.88;;;14.20;99.90;;;;;;5011320;28;20439;-76
2023/07/20 01:38:22;;;;;;;8.32;6.80;;;14.10;99.90;;;;;;5013592;28;20407;-76
2023/07/20 01:40:49;;;;;;;8.82;7.40;;;13.90;99.90;;;;;;5012620;28;20434;-76
2023/07/20 01:43:15;;;;;;;7.85;6.70;;;14.00;99.90;;;;;;5012299;28;20434;-76
2023/07/20 01:45:41;;;;;;;7.55;6.65;;;14.00;99.90;;;;;;4995498;28;20433;-76
2023/07/20 01:48:07;;;;;;;8.52;6.63;;;14.00;99.90;;;;;;4980661;28;20402;-76
2023/07/20 01:50:34;;;;;;;9.27;7.15;;;13.70;99.90;;;;;;4995587;28;20419;-76
2023/07/20 01:53:00;;;;;;;9.60;7.07;;;13.50;99.90;;;;;;5010454;28;20926;-76
2023/07/20 01:55:26;;;;;;;7.80;6.60;;;13.90;99.90;;;;;;5012151;28;20414;-76
2023/07/20 01:57:52;;;;;;;8.37;6.67;;;13.70;99.90;;;;;;5013546;28;20461;-76
2023/07/20 02:00:21;;;;;;;8.23;6.70;;;13.70;99.90;;;;;;5008419;28;20807;-76
2023/07/20 02:02:47;;;;;;;8.32;6.75;;;13.60;99.90;;;;;;5013342;28;20434;-75
2023/07/20 02:05:12;;;;;;;11.00;6.70;;;13.50;99.90;;;;;;4995857;28;20428;-76
2023/07/20 02:07:39;;;;;;;8.37;6.37;;;13.50;99.90;;;;;;4997899;28;20401;-76
2023/07/20 02:10:05;;;;;;;6.90;6.15;;;13.40;99.90;;;;;;5015082;28;20411;-76
2023/07/20 02:12:31;;;;;;;8.93;5.82;;;13.40;99.90;;;;;;5015483;28;20423;-76
2023/07/20 02:14:56;;;;;;;6.80;5.80;;;13.30;99.90;;;;;;5000790;28;20839;-75
2023/07/20 02:17:22;;;;;;;7.68;5.68;;;13.30;99.90;;;;;;5016900;28;20418;-76
2023/07/20 02:19:52;;;;;;;7.55;5.63;;;13.20;99.90;;;;;;5014465;28;20446;-76
2023/07/20 02:22:18;;;;;;;6.68;5.40;;;;;;;;;;4998991;28;20506;-76
2023/07/20 02:24:44;;;;;;;10.27;5.63;;;13.40;99.90;;;;;;4999056;28;20921;-76
2023/07/20 02:27:10;;;;;;;6.75;5.53;;;;;;;;;;5014484;28;20434;-76
2023/07/20 02:29:36;;;;;;;6.40;5.15;;;13.20;99.90;;;;;;5014711;28;20477;-76
2023/07/20 02:32:02;;;;;;;9.82;5.35;;;;;;;;;;4999207;28;20455;-76
2023/07/20 02:34:28;;;;;;;7.22;5.30;;;13.10;99.90;;;;;;5001152;28;20447;-76
2023/07/20 02:36:56;;;;;;;6.43;4.87;;;12.80;99.90;;;;;;4980858;28;20405;-75
2023/07/20 02:39:22;;;;;;;5.85;5.03;;;13.10;99.90;;;;;;4980402;28;20404;-75
2023/07/20 02:41:48;;;;;;;6.20;4.90;;;13.20;99.90;;;;;;4985811;28;21191;-76
2023/07/20 02:44:16;;;;;;;7.93;5.43;;;13.00;99.90;;;;;;4988146;28;20515;-75
2023/07/20 02:46:42;;;;;;;6.72;5.15;;;12.70;99.90;;;;;;5015652;28;20499;-75
2023/07/20 02:49:08;;;;;;;6.80;5.20;;;13.20;99.90;;;;;;5016086;28;20934;-75
2023/07/20 02:51:34;;;;;;;6.47;5.00;;;;;;;;;;5014734;28;20447;-75
2023/07/20 02:54:01;;;;;;;8.40;5.30;;;;;;;;;;5015267;28;20477;-75
2023/07/20 02:56:27;;;;;;;6.85;5.38;;;13.00;99.90;;;;;;5014276;28;20430;-75
2023/07/20 02:58:53;;;;;;;12.48;5.32;;;;;;;;;;5013350;28;20430;-75
2023/07/20 03:01:19;;;;;;;7.57;4.90;;;;;;;;;;5014655;28;20490;-75
2023/07/20 03:03:47;;;;;;;8.27;5.20;;;12.80;99.90;;;;;;5005625;28;20436;-75
2023/07/20 03:06:14;;;;;;;8.23;5.10;;;13.00;99.90;;;;;;4996084;28;20768;-75
2023/07/20 03:08:41;;;;;;;6.70;5.00;;;12.80;99.90;;;;;;5012467;28;20432;-76
2023/07/20 03:11:07;;;;;;;7.38;5.10;;;12.80;99.90;;;;;;5013302;28;20434;-75
2023/07/20 03:13:33;;;;;;;8.50;5.15;;;12.70;99.90;;;;;;4999606;28;20489;-75
2023/07/20 03:15:59;;;;;;;6.88;5.13;;;12.70;99.90;;;;;;5013805;28;20522;-76
2023/07/20 03:18:24;;;;;;;6.85;5.35;;;12.50;99.90;;;;;;5013551;28;20434;-75
2023/07/20 03:20:50;;;;;;;6.40;5.20;;;;;;;;;;5015243;28;20407;-75
2023/07/20 03:23:16;;;;;;;7.80;5.00;;;12.80;99.90;;;;;;5014670;28;20427;-75
2023/07/20 03:25:42;;;;;;;7.32;5.15;;;12.70;99.90;;;;;;4998509;28;20422;-76
2023/07/20 03:28:08;;;;;;;6.83;5.13;;;12.50;99.90;;;;;;4999266;28;20886;-75
2023/07/20 03:30:34;;;;;;;9.03;5.53;;;12.80;99.90;;;;;;4982562;28;20416;-75
2023/07/20 03:33:00;;;;;;;6.68;4.80;;;12.60;99.90;;;;;;5001923;28;20811;-75
2023/07/20 03:35:25;;;;;;;7.30;4.72;;;12.50;99.90;;;;;;5010140;28;20537;-75
2023/07/20 03:37:52;;;;;;;6.93;5.07;;;12.80;99.90;;;;;;5015477;28;20407;-75
2023/07/20 03:40:17;;;;;;;7.80;5.30;;;12.70;99.90;;;;;;5015387;28;20403;-75
2023/07/20 03:42:43;;;;;;;7.27;4.90;;;;;;;;;;4996583;28;20438;-76
2023/07/20 03:45:09;;;;;;;6.47;4.82;;;12.50;99.90;;;;;;5012800;28;20950;-76
2023/07/20 03:47:35;;;;;;;6.40;4.60;;;12.30;99.90;;;;;;4997915;28;20498;-75
2023/07/20 03:50:01;;;;;;;6.80;4.63;;;;;;;;;;5012551;28;20514;-75
2023/07/20 03:52:27;;;;;;;7.47;4.78;;;12.40;99.90;;;;;;5031719;28;20517;-75
2023/07/20 03:54:52;;;;;;;6.63;4.60;;;12.50;99.90;;;;;;5012816;28;20890;-75
2023/07/20 03:57:18;;;;;;;6.43;4.80;;;;;;;;;;5008237;28;20432;-75
2023/07/20 03:59:48;;;;;;;9.65;5.20;;;12.50;99.90;;;;;;4998531;28;20414;-75
2023/07/20 04:02:14;;;;;;;6.65;4.65;;;;;;;;;;5012101;28;20505;-75
2023/07/20 04:04:40;;;;;;;5.97;4.32;;;12.60;99.90;;;;;;5011959;28;20422;-75
2023/07/20 04:07:07;;;;;;;7.77;4.70;;;12.30;99.90;;;;;;5012481;28;20481;-75
2023/07/20 04:09:33;;;;;;;5.78;4.20;;;12.50;99.90;;;;;;5013892;28;20942;-75
2023/07/20 04:12:00;;;;;;;7.72;4.45;;;;;;;;;;5014623;28;20429;-75
2023/07/20 04:14:25;;;;;;;6.95;4.40;;;12.30;99.90;;;;;;5008276;28;20430;-75
2023/07/20 04:16:51;;;;;;;7.87;4.50;;;12.30;99.90;;;;;;5028599;28;20510;-75
2023/07/20 04:19:17;;;;;;;6.38;4.68;;;;;;;;;;5013081;28;21775;-75
2023/07/20 04:21:43;;;;;;;6.73;4.77;;;12.30;99.90;;;;;;4997521;28;20938;-75
2023/07/20 04:24:10;;;;;;;6.97;4.40;;;;;;;;;;5005052;28;20430;-75
2023/07/20 04:26:36;;;;;;;6.93;4.82;;;;;;;;;;4990724;28;20469;-75
2023/07/20 04:29:03;;;;;;;6.93;4.53;;;12.50;99.90;;;;;;5013427;28;20832;-75
2023/07/20 04:31:32;;;;;;;6.95;4.88;;;12.80;99.90;;;;;;4977913;28;20999;-75
2023/07/20 04:33:57;;;;;;;7.85;4.75;;;12.50;99.90;;;;;;4980404;28;20481;-77
2023/07/20 04:36:23;;;;;;;7.10;5.10;;;12.60;99.90;;;;;;4997088;28;20818;-77
2023/07/20 04:38:49;;;;;;;6.40;4.60;;;12.60;99.90;;;;;;5013153;28;20427;-77
2023/07/20 04:41:15;;;;;;;8.43;4.70;;;;;;;;;;5011654;28;20434;-77
2023/07/20 04:43:42;;;;;;;6.65;4.80;;;12.70;99.90;;;;;;4980041;28;20425;-77
2023/07/20 04:46:09;;;;;;;10.93;4.68;;;12.80;99.90;;;;;;4985049;28;20427;-77
2023/07/20 04:48:35;;;;;;;6.33;4.70;;;12.80;99.90;;;;;;5012482;28;20720;-77
2023/07/20 04:51:00;;;;;;;5.57;4.37;;;12.90;99.90;;;;;;5007283;28;20432;-77
2023/07/20 04:53:26;;;;;;;7.10;4.87;;;;;;;;;;5008385;28;20427;-77
2023/07/20 04:55:54;;;;;;;6.38;4.53;;;13.00;99.90;;;;;;5014247;28;20423;-77
2023/07/20 04:58:21;;;;;;;5.10;4.20;;;12.90;99.90;;;;;;4996377;28;20422;-77
2023/07/20 05:00:51;;;;;;;5.93;4.53;;;13.00;99.90;;;;;;5010783;28;20958;-77
2023/07/20 05:03:17;;;;;;;9.27;4.80;;;13.10;99.90;;;;;;4978863;28;20428;-77
2023/07/20 05:05:44;;;;;;;6.38;4.40;;;;;;;;;;4982608;28;20448;-78
2023/07/20 05:08:10;;;;;;;6.30;4.40;;;;;;;;;;5009044;28;20434;-77
2023/07/20 05:10:36;;;;;;;8.45;4.60;;;;;;;;;;5002123;28;20427;-77
2023/07/20 05:13:02;;;;;;;6.68;4.60;;;13.30;99.90;;;;;;5011521;28;20419;-77
2023/07/20 05:15:28;;;;;;;10.07;4.53;;;;;;;;;;5012134;28;20418;-77
2023/07/20 05:17:54;;;;;;;7.38;4.50;;;13.40;99.90;;;;;;4992320;28;20447;-77
2023/07/20 05:20:20;;;;;;;7.70;4.43;;;13.40;99.90;;;;;;4978442;28;20418;-77
2023/07/20 05:22:45;;;;;;;5.40;4.30;;;13.60;99.90;;;;;;4989936;28;20943;-76
2023/07/20 05:25:11;;;;;;;5.43;4.40;;;13.50;99.90;;;;;;4987193;28;20502;-76
2023/07/20 05:27:38;;;;;;;5.00;3.90;;;13.80;99.90;;;;;;5009763;28;20430;-76
2023/07/20 05:30:06;;;;;;;6.80;4.00;;;13.60;99.90;;;;;;5008633;28;20429;-76
2023/07/20 05:32:32;;;;;;;5.90;3.28;;;13.70;99.90;;;;;;5028077;28;20418;-76
2023/07/20 05:34:57;;;;;;;4.47;3.22;;;13.80;99.90;;;;;;5007614;28;20437;-76
2023/07/20 05:37:23;;;;;;;5.78;3.85;;;13.90;99.90;;;;;;4981570;28;20429;-75
2023/07/20 05:39:49;;;;;;;5.32;3.60;;;14.00;99.90;;;;;;4999162;28;20945;-76
2023/07/20 05:42:14;;;;;;;5.70;3.40;;;13.70;99.90;;;;;;4998377;28;20429;-76
2023/07/20 05:44:41;;;;;;;6.53;3.90;;;14.00;99.90;;;;;;5016344;28;20403;-76
2023/07/20 05:47:07;;;;;;;5.10;3.30;;;14.30;99.90;;;;;;5014286;28;20422;-77
2023/07/20 05:49:32;;;;;;;5.65;3.50;;;14.30;99.90;;;;;;5012985;28;20476;-76
2023/07/20 05:51:58;;;;;;;5.82;3.78;;;14.30;99.90;;;;;;5010409;28;20421;-77
2023/07/20 05:54:25;;;;;;;5.30;2.97;;;14.20;99.90;;;;;;4985680;28;20949;-76
2023/07/20 05:56:51;;;;;;;5.73;3.07;;;14.50;99.90;;;;;;5014650;28;20504;-76
2023/07/20 05:59:16;;;;;;;6.30;3.40;;;14.60;99.90;;;;;;5015959;28;20415;-75
2023/07/20 06:01:43;;;;;;;5.67;2.63;;;14.70;99.90;;;;;;4993189;28;21382;-75
2023/07/20 06:04:09;;;;;;;4.40;2.40;;;14.60;99.90;;;;;;5002196;28;20949;-76
2023/07/20 06:06:35;;;;;;;6.93;2.93;;;14.90;99.90;;;;;;5012212;28;20416;-77
2023/07/20 06:09:05;;;;;;;6.28;2.83;;;15.00;99.90;;;;;;5017175;28;20453;-76
2023/07/20 06:11:31;;;;;;;4.85;2.70;;;15.10;99.90;;;;;;4997461;28;20430;-75
2023/07/20 06:13:57;;;;;;;6.38;2.58;;;15.10;99.90;;;;;;5000931;28;20432;-75
2023/07/20 06:16:23;;;;;;;5.78;2.10;;;15.30;99.90;;;;;;5004061;28;20423;-75
2023/07/20 06:18:48;;;;;;;3.97;2.00;;;15.30;99.90;;;;;;5017743;28;20787;-75
2023/07/20 06:21:14;;;;;;;3.28;2.25;;;15.50;99.90;;;;;;5014622;28;20422;-75
2023/07/20 06:23:41;;;;;;;4.63;2.20;;;15.60;99.90;;;;;;4998195;28;20879;-76
2023/07/20 06:26:07;;;;;;;4.70;2.15;;;15.40;99.90;;;;;;5030751;28;20974;-76
2023/07/20 06:28:33;;;;;;;6.45;2.40;;;15.40;99.90;;;;;;5012254;28;20759;-76
2023/07/20 06:31:00;;;;;;;4.53;2.13;;;15.70;99.90;;;;;;5012064;28;20430;-75
2023/07/20 06:33:26;;;;;;;4.55;2.50;;;15.80;99.90;;;;;;5009664;28;20956;-76
2023/07/20 06:35:52;;;;;;;3.38;2.08;;;15.80;99.90;;;;;;5006086;28;20527;-75
2023/07/20 06:38:19;;;;;;;5.05;2.30;;;15.90;99.90;;;;;;5003981;28;20436;-76
2023/07/20 06:40:47;;;;;;;4.97;1.95;;;15.90;99.90;;;;;;4989741;28;20432;-76
2023/07/20 06:43:13;;;;;;;4.22;2.00;;;16.30;99.90;;;;;;5010332;28;20983;-75
2023/07/20 06:45:39;;;;;;;5.38;2.30;;;16.30;99.90;;;;;;5003912;28;20425;-76
2023/07/20 06:48:05;;;;;;;3.13;1.73;;;16.20;99.90;;;;;;5008216;28;20444;-75
2023/07/20 06:50:30;;;;;;;3.55;1.60;;;16.00;99.90;;;;;;4992233;28;20453;-76
2023/07/20 06:52:56;;;;;;;3.63;1.80;;;16.60;99.90;;;;;;4975272;28;20432;-75
2023/07/20 06:55:21;;;;;;;3.10;1.60;;;16.60;99.90;;;;;;5011765;28;20432;-75
2023/07/20 06:57:47;;;;;;;3.80;1.40;;;16.60;99.90;;;;;;4982085;28;20980;-75
2023/07/20 07:00:13;;;;;;;3.42;1.40;;;16.80;99.90;;;;;;5026545;28;20856;-75
2023/07/20 07:02:39;;;;;;;2.90;1.60;;;16.80;99.90;;;;;;5008897;28;20512;-75
2023/07/20 07:05:06;;;;;;;4.10;1.50;;;16.70;99.90;;;;;;5012886;28;20496;-76
2023/07/20 07:07:32;;;;;;;4.22;1.60;;;16.80;99.90;;;;;;5008289;28;20420;-75
2023/07/20 07:09:57;;;;;;;4.70;1.85;;;16.90;99.90;;;;;;4997397;28;20418;-77
2023/07/20 07:12:23;;;;;;;5.40;1.77;;;17.10;99.90;;;;;;4991704;28;20478;-76
2023/07/20 07:14:49;;;;;;;4.70;1.80;;;17.10;99.90;;;;;;5006800;28;20425;-75
2023/07/20 07:17:14;;;;;;;4.40;1.47;;;17.50;99.90;;;;;;4985572;28;20437;-76
2023/07/20 07:19:40;;;;;;;4.22;1.73;;;17.30;99.90;;;;;;5000696;28;20921;-76
2023/07/20 07:22:06;;;;;;;6.07;2.17;;;16.30;99.90;;;;;;5011699;28;20416;-76
2023/07/20 07:24:35;;;;;;;2.97;1.35;;;17.70;99.90;;;;;;5005125;28;20421;-76
2023/07/20 07:27:01;;;;;;;4.22;1.48;;;17.60;99.90;;;;;;4995806;28;20428;-76
2023/07/20 07:29:28;;;;;;;6.18;1.48;;;17.70;99.90;;;;;;4994423;28;20417;-77
2023/07/20 07:31:53;;;;;;;4.40;1.67;;;17.90;99.90;;;;;;5001341;28;20429;-76
2023/07/20 07:34:19;;;;;;;3.47;1.47;;;17.80;99.90;;;;;;5004962;28;20793;-76
2023/07/20 07:36:45;;;;;;;3.40;1.50;;;17.90;99.90;;;;;;5029543;28;20458;-77
2023/07/20 07:39:11;;;;;;;3.92;1.48;;;17.90;99.90;;;;;;4982517;28;20420;-77
2023/07/20 07:41:37;;;;;;;5.60;2.00;;;17.90;99.90;;;;;;5011175;28;20430;-78
2023/07/20 07:44:02;;;;;;;8.32;1.90;;;18.10;99.90;;;;;;4997758;28;20426;-76
2023/07/20 07:46:28;;;;;;;7.85;2.10;;;18.00;99.90;;;;;;5008673;28;20419;-76
2023/07/20 07:48:54;;;;;;;3.38;1.65;;;19.50;99.90;;;;;;5009957;28;20418;-76
2023/07/20 07:51:19;;;;;;;4.67;1.50;;;18.40;99.90;;;;;;4997226;28;20830;-75
2023/07/20 07:53:49;;;;;;;3.87;1.60;;;18.20;99.90;;;;;;5010194;28;20430;-76
2023/07/20 07:56:14;;;;;;;4.70;1.60;;;18.40;99.90;;;;;;5008908;28;20427;-76
2023/07/20 07:58:40;;;;;;;4.97;2.00;;;18.40;99.90;;;;;;5008158;28;20434;-76
2023/07/20 08:01:06;;;;;;;4.50;1.53;;;18.40;99.90;;;;;;5010789;28;20491;-76
2023/07/20 08:03:31;;;;;;;3.75;1.50;;;18.20;99.90;;;;;;4990423;28;20455;-76
2023/07/20 08:05:59;;;;;;;3.42;1.60;;;18.60;99.90;;;;;;5002359;28;20411;-76
2023/07/20 08:08:25;;;;;;;5.80;1.90;;;18.80;99.90;;;;;;5011113;28;20422;-76
2023/07/20 08:10:55;;;;;;;2.80;1.60;;;18.70;99.90;;;;;;5014542;28;20884;-76
2023/07/20 08:13:20;;;;;;;4.32;2.40;;;18.60;99.90;;;;;;5011413;28;20536;-76
2023/07/20 08:15:50;;;;;;;6.80;2.10;;;18.80;99.90;;;;;;5013511;28;20429;-75
2023/07/20 08:18:16;;;;;;;3.38;1.70;;;18.70;99.90;;;;;;5012089;28;20427;-75
2023/07/20 08:20:44;;;;;;;4.63;1.55;;;18.70;99.90;;;;;;5010134;28;20552;-75
2023/07/20 08:23:10;;;;;;;4.75;2.80;;;18.60;99.90;;;;;;5010721;28;20419;-79
2023/07/20 08:25:43;;;;;;;3.50;1.73;;;18.90;99.90;;;;;;5008320;28;20938;-77
2023/07/20 08:28:13;;;;;;;6.18;2.13;;;18.90;99.90;;;;;;5014303;28;20411;-77
2023/07/20 08:30:44;;;;;;;5.30;1.90;;;18.90;99.90;;;;;;5007594;28;20424;-77
2023/07/20 08:33:19;;;;;;;3.35;1.63;;;19.00;99.90;;;;;;4995708;28;20829;-78
2023/07/20 08:35:45;;;;;;;3.28;1.70;;;19.70;99.90;;;;;;5011097;28;20439;-76
2023/07/20 08:38:12;;;;;;;3.85;1.65;;;19.30;99.90;;;;;;4998671;28;20420;-79
2023/07/20 08:40:44;;;;;;;3.97;2.20;;;19.30;99.90;;;;;;4987241;28;20816;-76
2023/07/20 08:43:11;;;;;;;3.38;1.50;;;19.20;99.90;;;;;;5008632;28;20423;-78
2023/07/20 08:45:40;;;;;;;4.00;1.70;;;19.50;99.90;;;;;;5010872;28;20947;-78
2023/07/20 08:48:07;;;;;;;3.70;1.90;;;19.60;99.90;;;;;;5008367;28;20429;-78
2023/07/20 08:50:34;;;;;;;5.80;2.28;;;19.90;99.90;;;;;;4987932;28;20763;-78
2023/07/20 08:53:01;;;;;;;4.70;2.17;;;20.00;99.90;;;;;;5009696;28;20431;-77
2023/07/20 08:55:27;;;;;;;3.85;1.98;;;20.10;99.90;;;;;;5007051;28;20439;-78
2023/07/20 08:57:55;;;;;;;4.78;1.90;;;20.20;99.90;;;;;;5016981;28;20481;-78
2023/07/20 09:00:22;;;;;;;4.75;1.88;;;20.20;99.90;;;;;;4996735;28;20422;-78
2023/07/20 09:02:53;;;;;;;4.07;2.00;;;20.90;99.90;;;;;;5007302;28;20433;-78
2023/07/20 09:05:24;;;;;;;3.95;1.80;;;20.30;99.90;;;;;;5002853;28;20469;-77
2023/07/20 09:07:52;;;;;;;4.07;1.70;;;20.30;99.90;;;;;;4992293;28;20431;-78
2023/07/20 09:10:20;;;;;;;5.25;1.80;;;21.90;99.90;;;;;;5003308;28;20418;-78
2023/07/20 09:12:46;;;;;;;3.83;1.80;;;21.10;99.90;;;;;;5014527;28;20434;-78
2023/07/20 09:15:12;;;;;;;5.00;2.05;;;21.10;99.90;;;;;;5014771;28;20525;-78
2023/07/20 09:17:38;;;;;;;4.90;1.90;;;21.20;99.90;;;;;;5018219;28;20466;-78
2023/07/20 09:20:08;;;;;;;4.97;1.90;;;20.90;99.90;;;;;;5015418;28;20906;-77
2023/07/20 09:22:34;;;;;;;5.88;2.00;;;20.40;99.90;;;;;;5014185;28;20417;-77
2023/07/20 09:25:00;;;;;;;5.13;1.73;;;20.40;99.90;;;;;;5015328;28;20458;-78
2023/07/20 09:27:39;;;;;;;4.43;1.95;;;20.30;99.90;;;;;;4995805;28;20448;-78
2023/07/20 09:30:09;;;;;;;4.57;2.17;;;20.90;99.90;;;;;;5008804;28;20429;-77
2023/07/20 09:32:44;;;;;;;7.13;2.57;;;21.10;99.90;;;;;;5015507;28;20962;-77
2023/07/20 09:35:18;;;;;;;4.57;1.88;;;20.90;99.90;;;;;;5011193;28;20768;-77
2023/07/20 09:37:51;;;;;;;6.78;2.28;;;20.70;99.90;;;;;;4998037;28;20434;-77
2023/07/20 09:40:18;;;;;;;7.95;1.90;;;20.50;99.90;;;;;;5028465;28;20428;-77
2023/07/20 09:42:44;;;;;;;4.30;1.90;;;20.50;99.90;;;;;;5010446;28;20423;-76
2023/07/20 09:45:11;;;;;;;3.80;1.70;;;20.40;99.90;;;;;;5001068;28;20413;-76
2023/07/20 09:47:38;;;;;;;7.30;1.77;;;20.20;99.90;;;;;;5003811;28;20808;-77
2023/07/20 09:50:04;;;;;;;5.43;1.60;;;20.20;99.90;;;;;;4994193;28;20419;-76
2023/07/20 09:52:30;;;;;;;4.80;2.20;;;20.30;99.90;;;;;;5009750;28;20824;-78
2023/07/20 09:54:57;;;;;;;6.78;2.10;;;20.20;99.90;;;;;;5011125;28;20413;-78
2023/07/20 09:57:23;;;;;;;5.00;1.65;;;19.90;99.90;;;;;;5013669;28;20446;-78
2023/07/20 09:59:49;;;;;;;5.18;1.63;;;19.70;99.90;;;;;;4983160;28;20822;-78
2023/07/20 10:02:29;;;;;;;3.63;1.38;;;19.70;99.90;;;;;;5009370;28;20420;-79
2023/07/20 10:04:55;;;;;;;4.18;1.52;;;19.60;99.90;;;;;;5005661;28;20459;-78
2023/07/20 10:07:24;;;;;;;3.67;1.80;;;20.00;99.90;;;;;;4993748;28;21245;-79
2023/07/20 10:09:53;;;;;;;3.97;1.60;;;20.50;99.90;;;;;;5007832;28;20472;-78
2023/07/20 10:12:23;;;;;;;3.58;1.35;;;20.80;99.90;;;;;;4998573;28;20416;-78
2023/07/20 10:14:57;;;;;;;4.70;1.50;;;21.30;99.90;;;;;;5010826;28;20426;-78
2023/07/20 10:17:25;;;;;;;3.25;1.48;;;21.60;99.90;;;;;;4989609;28;20806;-80
2023/07/20 10:19:56;;;;;;;4.00;1.65;;;21.50;99.90;;;;;;5014511;28;20502;-78
2023/07/20 10:22:27;;;;;;;4.15;1.50;;;21.70;99.90;;;;;;5010756;28;20426;-78
2023/07/20 10:24:54;;;;;;;4.20;1.50;;;21.50;99.90;;;;;;5011700;28;20779;-78
2023/07/20 10:27:23;;;;;;;3.97;1.70;;;21.30;99.90;;;;;;5014316;28;20427;-76
2023/07/20 10:29:51;;;;;;;8.50;1.50;;;21.10;99.90;;;;;;5010620;28;20476;-78
2023/07/20 10:32:18;;;;;;;2.88;1.48;;;20.90;99.90;;;;;;5010781;28;21339;-79
2023/07/20 10:34:51;;;;;;;4.40;1.50;;;20.40;99.90;;;;;;4992953;28;20561;-78
2023/07/20 10:37:50;;;;;;;3.63;1.50;;;20.50;99.90;;;;;;5003124;28;20504;-78
2023/07/20 10:40:30;;;;;;;3.88;1.40;;;20.60;99.90;;;;;;5010133;28;20456;-77
2023/07/20 10:43:07;;;;;;;4.55;1.50;;;20.80;99.90;;;;;;5013908;28;20435;-77
2023/07/20 10:45:48;;;;;;;3.58;1.50;;;21.00;99.90;;;;;;4997395;28;20423;-78
2023/07/20 10:48:23;;;;;;;4.53;1.40;;;21.00;99.90;;;;;;5007570;28;20426;-78
2023/07/20 10:51:33;;;;;;;4.03;1.30;;;21.20;99.90;;;;;;5012967;28;20480;-77
2023/07/20 10:54:02;;;;;;;4.55;1.80;;;21.70;99.60;;;;;;5009495;28;20451;-79
2023/07/20 10:56:32;;;;;;;3.92;1.45;;;21.90;99.30;;;;;;4969535;28;20428;-79
2023/07/20 10:59:17;;;;;;;3.58;1.45;;;22.20;99.10;;;;;;4981523;28;20425;-77
2023/07/20 11:01:44;;;;;;;3.28;1.20;;;22.10;99.20;;;;;;5005077;28;20513;-77
2023/07/20 11:04:10;;;;;;;2.85;1.40;;;21.90;99.00;;;;;;4992218;28;20461;-77
2023/07/20 11:06:38;;;;;;;3.83;1.30;;;21.70;99.50;;;;;;5012906;28;20423;-77
2023/07/20 11:09:14;;;;;;;3.92;1.40;;;21.60;99.50;;;;;;5012668;28;20434;-78
2023/07/20 11:11:46;;;;;;;5.55;1.60;;;21.50;99.50;;;;;;5011945;28;20517;-79
2023/07/20 11:14:25;;;;;;;5.88;1.65;;;21.60;99.70;;;;;;5024701;28;20417;-78
2023/07/20 11:16:52;;;;;;;6.40;1.73;;;21.90;99.90;;;;;;5023023;28;20505;-79
2023/07/20 11:19:23;;;;;;;4.38;1.70;;;21.80;99.60;;;;;;4997507;28;20481;-77
2023/07/20 11:21:58;;;;;;;4.60;1.70;;;21.80;98.90;;;;;;5010847;28;20937;-77
2023/07/20 11:24:24;;;;;;;3.83;1.40;;;21.80;99.10;;;;;;5017842;28;20439;-77
2023/07/20 11:26:52;;;;;;;4.40;1.50;;;21.80;99.40;;;;;;5025891;28;20430;-77
2023/07/20 11:29:20;;;;;;;2.85;1.42;;;21.60;99.10;;;;;;5012201;28;20953;-77
2023/07/20 11:31:46;;;;;;;4.88;1.60;;;21.60;98.40;;;;;;5012551;28;20426;-77
2023/07/20 11:34:17;;;;;;;3.30;1.58;;;21.60;99.30;;;;;;5013930;28;20753;-77
2023/07/20 11:36:45;;;;;;;4.45;1.77;;;21.00;99.90;;;;;;5011249;28;20907;-78
2023/07/20 11:39:12;;;;;;;4.50;1.73;;;20.80;99.90;;;;;;5009488;28;20425;-77
2023/07/20 11:41:39;;;;;;;3.88;1.40;;;20.80;99.90;;;;;;5012149;28;20514;-78
2023/07/20 11:44:07;;;;;;;3.17;1.48;;;20.90;99.90;;;;;;4993354;28;20429;-76
2023/07/20 11:46:34;;;;;;;5.70;1.70;;;20.90;99.90;;;;;;5009948;28;20427;-76
2023/07/20 11:49:00;;;;;;;3.58;1.60;;;21.10;99.90;;;;;;5011243;28;20430;-77
2023/07/20 11:51:28;;;;;;;3.43;1.70;;;20.90;99.90;;;;;;5012370;28;20427;-76
2023/07/20 11:53:54;;;;;;;3.97;1.60;;;19.30;99.90;;;;;;4994651;28;20426;-77
2023/07/20 11:56:20;;;;;;;6.05;2.00;;;20.40;99.90;;;;;;5008418;28;20426;-77
2023/07/20 11:58:46;;;;;;;4.20;1.70;;;20.20;99.90;;;;;;5012530;28;20449;-77
2023/07/20 12:01:13;;;;;;;4.28;2.33;;;20.30;99.90;;;;;;4994985;28;20566;-77
2023/07/20 12:03:39;;;;;;;5.47;2.97;;;19.90;99.90;;;;;;5010734;28;20489;-77
2023/07/20 12:06:13;;;;;;;2.63;1.30;;;19.80;99.90;;;;;;5010538;28;20454;-77
2023/07/20 12:08:40;;;;;;;3.17;1.50;;;19.70;99.90;;;;;;5012606;28;20427;-77
2023/07/20 12:11:07;;;;;;;4.65;1.60;;;19.70;99.90;;;;;;4997824;28;20411;-77
2023/07/20 12:14:00;;;;;;;4.93;1.85;;;19.60;99.90;;;;;;5030208;28;20415;-77
2023/07/20 12:16:29;;;;;;;3.40;1.40;;;19.80;99.90;;;;;;5006241;28;20432;-78
2023/07/20 12:19:06;;;;;;;3.50;1.33;;;20.00;99.90;;;;;;5003879;28;20854;-77
2023/07/20 12:21:35;;;;;;;3.25;1.50;;;20.20;99.90;;;;;;4990036;28;21195;-78
2023/07/20 12:24:01;;;;;;;4.07;1.60;;;20.60;99.90;;;;;;5001945;28;20436;-78
2023/07/20 12:26:30;;;;;;;5.43;1.40;;;21.00;99.80;;;;;;5008507;28;20434;-78
2023/07/20 12:28:56;;;;;;;3.90;1.45;;;21.20;99.40;;;;;;5001316;28;20422;-78
2023/07/20 12:31:24;;;;;;;4.63;1.50;;;21.70;99.50;;;;;;4992187;28;20423;-78
2023/07/20 12:33:56;;;;;;;3.37;2.00;;;22.00;98.90;;;;;;5004816;28;20424;-80
2023/07/20 12:36:22;;;;;;;4.60;1.70;;;20.70;98.50;;;;;;5012175;28;20946;-78
2023/07/20 12:38:48;;;;;;;3.95;1.50;;;22.20;99.90;;;;;;4997079;28;20419;-78
2023/07/20 12:41:14;;;;;;;4.10;2.53;;;22.00;99.70;;;;;;5012270;28;20973;-78
2023/07/20 12:43:41;;;;;;;4.22;2.50;;;21.70;99.70;;;;;;5010541;28;20426;-77
2023/07/20 12:46:07;;;;;;;5.80;3.90;;;21.10;99.90;;;;;;5006351;28;20982;-76
2023/07/20 12:48:43;;;;;;;4.30;2.27;;;21.00;99.90;;;;;;5004329;28;20415;-75
2023/07/20 12:51:09;;;;;;;2.78;1.38;;;20.80;99.80;;;;;;4976521;28;22347;-76
2023/07/20 12:53:35;;;;;;;4.80;2.20;;;20.90;99.90;;;;;;5009409;28;20463;-76
2023/07/20 12:56:04;;;;;;;4.13;1.60;;;21.20;99.90;;;;;;5010227;28;20489;-76